Time;durP1;ratioP1;P1;durP2;ratioP2;P2;SDS_P1;SDS_P2;PMS_P1;PMS_P2;Temp;Humidity;BMP_temperature;BMP_pressure;BME280_temperature;BME280_humidity;BME280_pressure;Samples;Min_cycle;Max_cycle;Signal;HPM_P1;HPM_P2
2023/09/17 00:01:59;;;;;;;11.93;8.30;;;15.40;50.50;;;;;;5109120;27;47436;-80
2023/09/17 00:04:25;;;;;;;13.97;8.60;;;15.30;50.50;;;;;;5108313;27;47237;-81
2023/09/17 00:06:50;;;;;;;14.50;8.60;;;15.20;50.80;;;;;;5112039;27;46509;-80
2023/09/17 00:09:17;;;;;;;17.50;8.40;;;15.10;50.90;;;;;;5093138;27;46482;-80
2023/09/17 00:11:43;;;;;;;13.20;8.67;;;15.10;51.00;;;;;;5108672;27;46766;-81
2023/09/17 00:14:09;;;;;;;10.23;7.83;;;15.00;50.90;;;;;;5119099;27;47641;-80
2023/09/17 00:16:35;;;;;;;16.33;8.33;;;15.00;51.00;;;;;;5117376;27;46649;-81
2023/09/17 00:19:00;;;;;;;13.60;8.70;;;15.10;51.20;;;;;;5117719;27;46489;-80
2023/09/17 00:21:26;;;;;;;16.40;8.43;;;15.00;51.00;;;;;;5115333;27;46876;-83
2023/09/17 00:23:52;;;;;;;11.90;8.00;;;15.00;50.90;;;;;;5104170;27;47152;-80
2023/09/17 00:26:17;;;;;;;11.90;8.87;;;15.00;50.80;;;;;;5107261;27;46779;-80
2023/09/17 00:28:43;;;;;;;12.30;8.80;;;15.10;50.80;;;;;;5089700;27;46480;-80
2023/09/17 00:31:09;;;;;;;12.47;8.97;;;15.00;50.60;;;;;;5109719;27;46729;-80
2023/09/17 00:33:34;;;;;;;12.23;8.20;;;15.00;50.90;;;;;;5106191;27;46382;-80
2023/09/17 00:36:00;;;;;;;14.17;8.80;;;15.00;51.00;;;;;;5089237;27;46106;-82
2023/09/17 00:38:25;;;;;;;13.50;9.10;;;14.90;51.10;;;;;;5112104;27;46437;-81
2023/09/17 00:40:51;;;;;;;16.50;10.70;;;14.80;51.30;;;;;;5109807;27;46973;-84
2023/09/17 00:43:17;;;;;;;14.33;10.00;;;14.80;51.40;;;;;;5108190;27;47004;-83
2023/09/17 00:45:43;;;;;;;16.80;9.60;;;14.70;51.60;;;;;;5111486;27;46577;-83
2023/09/17 00:48:11;;;;;;;12.23;9.27;;;14.80;51.80;;;;;;5114060;27;46887;-81
2023/09/17 00:50:38;;;;;;;13.53;8.97;;;14.80;51.70;;;;;;5115496;27;46656;-82
2023/09/17 00:53:05;;;;;;;18.00;9.80;;;14.80;51.70;;;;;;5106046;27;47244;-80
2023/09/17 00:55:31;;;;;;;14.57;9.50;;;14.80;51.80;;;;;;5105681;27;46444;-78
2023/09/17 00:57:58;;;;;;;15.13;9.50;;;14.70;53.00;;;;;;5104315;27;46837;-80
2023/09/17 01:00:24;;;;;;;13.47;9.53;;;14.80;52.00;;;;;;5105264;27;46588;-80
2023/09/17 01:02:50;;;;;;;14.10;10.20;;;14.90;52.00;;;;;;5105868;27;46703;-81
2023/09/17 01:05:17;;;;;;;15.00;10.20;;;14.80;51.80;;;;;;5106268;27;46565;-80
2023/09/17 01:07:44;;;;;;;14.60;10.40;;;14.80;51.70;;;;;;5104741;27;46530;-78
2023/09/17 01:10:10;;;;;;;14.87;11.03;;;14.80;51.80;;;;;;5107086;27;46398;-80
2023/09/17 01:12:36;;;;;;;17.17;10.83;;;14.90;52.20;;;;;;5105192;27;48579;-81
2023/09/17 01:15:09;;;;;;;21.73;11.63;;;14.90;52.10;;;;;;5090820;27;46531;-81
2023/09/17 01:17:35;;;;;;;14.13;9.90;;;15.00;52.20;;;;;;5106568;27;46560;-79
2023/09/17 01:20:07;;;;;;;15.93;10.63;;;15.00;52.20;;;;;;5104518;27;46401;-80
2023/09/17 01:22:39;;;;;;;14.20;10.50;;;15.00;52.70;;;;;;5106897;27;46721;-81
2023/09/17 01:25:18;;;;;;;17.10;10.30;;;14.90;54.00;;;;;;5105567;27;46417;-80
2023/09/17 01:27:44;;;;;;;17.93;11.57;;;15.00;53.60;;;;;;5095794;27;46410;-81
2023/09/17 01:30:11;;;;;;;18.60;11.57;;;14.90;53.70;;;;;;5089657;27;46349;-80
2023/09/17 01:32:39;;;;;;;14.63;9.80;;;14.90;53.70;;;;;;5087687;27;48402;-81
2023/09/17 01:35:05;;;;;;;17.37;11.33;;;14.90;53.80;;;;;;5105059;27;46422;-80
2023/09/17 01:37:35;;;;;;;15.40;9.33;;;14.90;54.10;;;;;;5104504;27;46560;-79
2023/09/17 01:40:10;;;;;;;17.93;10.73;;;14.80;54.40;;;;;;5100183;27;46472;-80
2023/09/17 01:42:43;;;;;;;13.50;9.80;;;14.70;54.40;;;;;;5092158;27;49274;-80
2023/09/17 01:45:13;;;;;;;16.10;9.60;;;14.60;54.70;;;;;;5093267;27;46663;-80
2023/09/17 01:47:43;;;;;;;17.80;8.27;;;14.60;55.00;;;;;;5091336;27;47667;-77
2023/09/17 01:50:11;;;;;;;14.50;9.07;;;14.60;55.10;;;;;;5089791;27;46573;-80
2023/09/17 01:52:37;;;;;;;16.90;10.00;;;14.60;54.90;;;;;;5105000;27;46687;-80
2023/09/17 01:55:03;;;;;;;16.23;8.77;;;14.60;54.70;;;;;;5090116;27;47088;-82
2023/09/17 01:57:31;;;;;;;12.23;8.80;;;14.60;54.70;;;;;;5108687;27;46537;-80
2023/09/17 01:59:57;;;;;;;17.33;8.70;;;14.60;54.90;;;;;;5091101;27;46395;-79
2023/09/17 02:02:23;;;;;;;11.90;8.67;;;14.60;54.90;;;;;;5106532;27;47306;-81
2023/09/17 02:04:49;;;;;;;12.70;8.13;;;14.50;54.90;;;;;;5107285;27;46505;-81
2023/09/17 02:07:15;;;;;;;13.73;8.93;;;14.40;55.10;;;;;;5107898;27;46667;-81
2023/09/17 02:09:41;;;;;;;14.27;9.00;;;14.40;55.50;;;;;;5091718;27;46559;-82
2023/09/17 02:12:07;;;;;;;14.47;10.23;;;14.40;55.70;;;;;;5109097;27;46395;-80
2023/09/17 02:14:32;;;;;;;14.17;10.63;;;14.30;55.80;;;;;;5107710;27;46770;-82
2023/09/17 02:16:58;;;;;;;24.00;11.30;;;14.40;55.70;;;;;;5092019;27;46537;-83
2023/09/17 02:19:25;;;;;;;15.43;10.40;;;14.30;55.60;;;;;;5111301;27;46555;-81
2023/09/17 02:21:51;;;;;;;15.97;9.43;;;14.30;55.60;;;;;;5108696;27;46680;-81
2023/09/17 02:24:16;;;;;;;17.80;10.73;;;14.40;55.70;;;;;;5107585;27;46524;-80
2023/09/17 02:26:42;;;;;;;13.10;8.77;;;14.40;55.70;;;;;;5105065;27;46535;-80
2023/09/17 02:29:08;;;;;;;17.67;9.93;;;14.40;55.70;;;;;;5095363;27;46516;-80
2023/09/17 02:31:33;;;;;;;12.73;8.63;;;14.50;55.80;;;;;;5091136;27;48131;-80
2023/09/17 02:33:59;;;;;;;17.13;9.17;;;14.30;55.60;;;;;;5104437;27;46497;-80
2023/09/17 02:36:25;;;;;;;15.07;9.30;;;14.30;55.60;;;;;;5090132;27;47023;-80
2023/09/17 02:38:50;;;;;;;17.50;10.20;;;14.30;55.60;;;;;;5088218;27;46422;-80
2023/09/17 02:41:16;;;;;;;21.70;9.43;;;14.30;56.00;;;;;;5107865;27;46866;-80
2023/09/17 02:43:41;;;;;;;16.80;9.70;;;14.50;55.80;;;;;;5107732;27;46615;-81
2023/09/17 02:46:07;;;;;;;20.80;9.40;;;14.50;55.80;;;;;;5107368;27;46266;-81
2023/09/17 02:48:32;;;;;;;13.20;9.13;;;14.60;55.80;;;;;;5105553;27;46715;-80
2023/09/17 02:50:59;;;;;;;15.50;8.53;;;14.60;55.00;;;;;;5107848;27;46547;-80
2023/09/17 02:53:25;;;;;;;14.17;8.97;;;14.70;54.60;;;;;;5091109;27;46463;-80
2023/09/17 02:55:52;;;;;;;12.03;8.63;;;14.90;54.70;;;;;;5107817;27;46304;-80
2023/09/17 02:58:17;;;;;;;14.87;8.80;;;14.80;54.50;;;;;;5105840;27;46481;-81
2023/09/17 03:00:44;;;;;;;15.93;9.47;;;14.80;54.50;;;;;;5106531;27;46469;-81
2023/09/17 03:03:10;;;;;;;17.67;9.50;;;14.80;54.90;;;;;;5091267;27;46569;-79
2023/09/17 03:05:38;;;;;;;16.63;8.83;;;14.70;54.90;;;;;;5107821;27;46532;-81
2023/09/17 03:08:09;;;;;;;16.67;9.57;;;14.70;55.00;;;;;;5108460;27;45962;-81
2023/09/17 03:10:41;;;;;;;18.97;10.37;;;14.70;55.10;;;;;;5093139;27;48286;-80
2023/09/17 03:13:09;;;;;;;16.30;10.40;;;14.70;55.30;;;;;;5111000;27;46395;-81
2023/09/17 03:15:35;;;;;;;14.20;10.20;;;14.80;55.80;;;;;;5110731;27;46592;-83
2023/09/17 03:18:00;;;;;;;13.13;9.93;;;14.80;56.10;;;;;;5107417;27;47029;-83
2023/09/17 03:20:27;;;;;;;16.07;10.70;;;14.80;56.10;;;;;;5089933;27;48026;-85
2023/09/17 03:22:53;;;;;;;16.63;10.70;;;14.90;56.10;;;;;;5109068;27;46723;-80
2023/09/17 03:25:19;;;;;;;13.57;9.43;;;14.90;56.20;;;;;;5112784;27;46905;-82
2023/09/17 03:27:45;;;;;;;14.90;10.63;;;14.90;56.20;;;;;;5115058;27;46769;-78
2023/09/17 03:30:12;;;;;;;15.03;9.80;;;14.90;56.10;;;;;;5109300;27;46510;-83
2023/09/17 03:32:38;;;;;;;11.97;9.47;;;14.90;56.20;;;;;;5108692;27;46454;-80
2023/09/17 03:35:05;;;;;;;12.53;9.03;;;14.90;56.10;;;;;;5088392;27;46371;-80
2023/09/17 03:37:31;;;;;;;14.93;8.57;;;14.90;56.10;;;;;;5097047;27;46737;-83
2023/09/17 03:40:11;;;;;;;13.07;8.60;;;14.80;56.20;;;;;;5105292;27;46066;-80
2023/09/17 03:42:41;;;;;;;13.73;8.43;;;14.60;57.10;;;;;;5106046;27;46415;-80
2023/09/17 03:45:11;;;;;;;12.40;7.97;;;14.50;57.40;;;;;;5106059;27;46363;-80
2023/09/17 03:47:40;;;;;;;13.70;9.70;;;14.50;57.70;;;;;;5106710;27;46445;-81
2023/09/17 03:50:11;;;;;;;12.30;8.87;;;14.50;57.80;;;;;;5105752;27;46611;-79
2023/09/17 03:52:37;;;;;;;14.50;9.57;;;14.40;57.50;;;;;;5107808;27;47162;-80
2023/09/17 03:55:07;;;;;;;23.53;9.57;;;14.50;57.50;;;;;;5105478;27;46982;-81
2023/09/17 03:57:35;;;;;;;17.40;10.00;;;14.50;57.20;;;;;;5106333;27;46890;-80
2023/09/17 04:00:09;;;;;;;16.50;10.20;;;14.60;57.20;;;;;;5106218;27;46532;-81
2023/09/17 04:02:35;;;;;;;17.63;10.43;;;14.60;57.50;;;;;;5105958;27;46508;-79
2023/09/17 04:05:07;;;;;;;14.50;10.27;;;14.60;57.90;;;;;;5085488;27;46489;-80
2023/09/17 04:07:33;;;;;;;17.83;11.60;;;14.60;58.00;;;;;;5107588;27;46520;-80
2023/09/17 04:09:58;;;;;;;16.27;10.90;;;14.70;58.20;;;;;;5106620;27;46546;-80
2023/09/17 04:12:24;;;;;;;13.00;9.70;;;14.80;58.20;;;;;;5089393;27;46776;-81
2023/09/17 04:14:49;;;;;;;15.20;9.80;;;14.80;58.10;;;;;;5092096;27;46533;-80
2023/09/17 04:17:15;;;;;;;14.33;9.13;;;14.90;58.00;;;;;;5108666;27;47799;-80
2023/09/17 04:19:40;;;;;;;14.10;9.53;;;14.80;57.80;;;;;;5110226;27;46506;-80
2023/09/17 04:22:06;;;;;;;11.83;8.53;;;14.80;57.90;;;;;;5104037;27;46836;-80
2023/09/17 04:24:31;;;;;;;11.40;8.53;;;14.70;58.00;;;;;;5108116;27;46498;-81
2023/09/17 04:26:57;;;;;;;16.90;9.20;;;14.70;57.80;;;;;;5109931;27;46582;-80
2023/09/17 04:29:23;;;;;;;13.93;8.30;;;14.80;57.70;;;;;;5111124;27;46520;-81
2023/09/17 04:31:49;;;;;;;12.60;8.60;;;14.80;57.20;;;;;;5087976;27;46977;-82
2023/09/17 04:34:15;;;;;;;11.10;8.23;;;14.90;57.10;;;;;;5109655;27;46582;-81
2023/09/17 04:36:41;;;;;;;12.00;8.67;;;15.10;56.80;;;;;;5090939;27;46459;-81
2023/09/17 04:39:09;;;;;;;14.87;8.30;;;15.10;56.40;;;;;;5108217;27;47097;-81
2023/09/17 04:41:37;;;;;;;16.80;9.00;;;15.20;56.40;;;;;;5109489;27;46453;-80
2023/09/17 04:44:07;;;;;;;12.57;8.33;;;15.20;56.40;;;;;;5108981;27;46598;-81
2023/09/17 04:46:34;;;;;;;10.30;7.80;;;15.20;56.40;;;;;;5108033;27;46342;-81
2023/09/17 04:48:59;;;;;;;15.57;7.40;;;15.10;56.50;;;;;;5106598;27;46001;-81
2023/09/17 04:51:27;;;;;;;13.30;7.80;;;15.10;57.10;;;;;;5108970;27;46390;-80
2023/09/17 04:53:52;;;;;;;16.70;8.30;;;15.00;57.10;;;;;;5090054;27;46538;-82
2023/09/17 04:56:18;;;;;;;16.97;8.47;;;15.00;57.40;;;;;;5107140;27;46901;-80
2023/09/17 04:58:43;;;;;;;11.60;7.60;;;15.00;57.60;;;;;;5091119;27;48689;-80
2023/09/17 05:01:09;;;;;;;14.07;7.33;;;14.90;57.70;;;;;;5107578;27;46762;-82
2023/09/17 05:03:37;;;;;;;16.50;8.10;;;15.00;57.90;;;;;;5092035;27;46985;-81
2023/09/17 05:06:02;;;;;;;17.27;8.20;;;15.00;57.70;;;;;;5109386;27;46363;-83
2023/09/17 05:08:28;;;;;;;12.97;9.13;;;15.00;57.40;;;;;;5108682;27;46837;-80
2023/09/17 05:10:53;;;;;;;10.17;7.63;;;15.20;57.10;;;;;;5110871;27;46528;-85
2023/09/17 05:13:19;;;;;;;17.57;7.50;;;15.30;56.50;;;;;;5111806;27;46443;-85
2023/09/17 05:15:45;;;;;;;11.63;7.93;;;15.50;56.70;;;;;;5115155;27;45996;-81
2023/09/17 05:18:10;;;;;;;12.80;7.83;;;15.60;56.80;;;;;;5094251;27;48100;-79
2023/09/17 05:20:38;;;;;;;10.43;8.27;;;15.70;56.00;;;;;;5113046;27;46535;-80
2023/09/17 05:23:04;;;;;;;11.87;7.53;;;15.90;55.60;;;;;;5111274;27;46317;-81
2023/09/17 05:25:29;;;;;;;9.60;7.10;;;16.00;55.30;;;;;;5111796;27;46398;-81
2023/09/17 05:27:55;;;;;;;12.47;7.57;;;16.10;55.10;;;;;;5098706;27;47368;-81
2023/09/17 05:30:20;;;;;;;8.13;6.50;;;16.20;55.00;;;;;;5109519;27;46450;-82
2023/09/17 05:32:46;;;;;;;8.33;6.00;;;16.30;54.80;;;;;;5094192;27;46504;-79
2023/09/17 05:35:12;;;;;;;10.40;6.60;;;16.50;55.00;;;;;;5109201;27;46423;-82
2023/09/17 05:37:38;;;;;;;13.37;7.20;;;16.70;55.40;;;;;;5107602;27;46026;-83
2023/09/17 05:40:04;;;;;;;9.00;6.57;;;16.60;55.00;;;;;;5106615;27;46556;-82
2023/09/17 05:42:31;;;;;;;9.20;6.50;;;16.60;55.00;;;;;;5109788;27;46760;-83
2023/09/17 05:44:56;;;;;;;11.87;7.60;;;16.60;54.70;;;;;;5112232;27;45949;-80
2023/09/17 05:47:22;;;;;;;9.90;6.67;;;16.70;54.40;;;;;;5094945;27;48705;-82
2023/09/17 05:49:48;;;;;;;9.13;6.23;;;16.70;55.00;;;;;;5110247;27;47028;-85
2023/09/17 05:52:13;;;;;;;8.03;6.67;;;16.80;53.60;;;;;;5112820;27;46450;-83
2023/09/17 05:54:39;;;;;;;10.47;6.90;;;16.90;53.30;;;;;;5112976;27;46478;-82
2023/09/17 05:57:04;;;;;;;9.03;6.60;;;17.10;53.10;;;;;;5111436;27;46533;-83
2023/09/17 05:59:30;;;;;;;9.73;6.20;;;16.90;52.90;;;;;;5109029;27;46430;-83
2023/09/17 06:01:57;;;;;;;10.80;6.57;;;16.90;53.10;;;;;;5109405;27;47655;-81
2023/09/17 06:04:22;;;;;;;10.33;6.17;;;17.00;53.00;;;;;;5093859;27;46499;-82
2023/09/17 06:06:48;;;;;;;7.93;6.30;;;17.00;53.00;;;;;;5109135;27;46603;-80
2023/09/17 06:09:14;;;;;;;10.93;7.20;;;17.10;52.90;;;;;;5111078;27;46817;-80
2023/09/17 06:11:43;;;;;;;11.40;6.70;;;17.20;52.80;;;;;;5096140;27;46769;-80
2023/09/17 06:14:09;;;;;;;11.20;6.47;;;17.40;52.50;;;;;;5111820;27;46446;-85
2023/09/17 06:16:34;;;;;;;9.40;6.60;;;17.60;51.70;;;;;;5096996;27;49193;-82
2023/09/17 06:19:00;;;;;;;10.00;6.20;;;17.90;51.20;;;;;;5095849;27;46924;-83
2023/09/17 06:21:26;;;;;;;9.00;6.37;;;18.00;50.80;;;;;;5114035;27;46766;-84
2023/09/17 06:23:51;;;;;;;10.27;7.00;;;18.10;50.40;;;;;;5114096;27;46439;-83
2023/09/17 06:26:17;;;;;;;8.83;6.17;;;18.20;50.20;;;;;;5111006;27;46430;-81
2023/09/17 06:28:42;;;;;;;9.10;5.93;;;18.30;50.10;;;;;;5108129;27;50293;-83
2023/09/17 06:31:08;;;;;;;10.23;6.30;;;18.50;49.90;;;;;;5110272;27;46458;-82
2023/09/17 06:33:35;;;;;;;10.63;5.50;;;18.60;49.60;;;;;;5096235;27;46557;-83
2023/09/17 06:36:10;;;;;;;15.50;5.97;;;18.70;49.40;;;;;;5113085;27;46800;-82
2023/09/17 06:38:35;;;;;;;9.80;5.80;;;18.80;50.20;;;;;;5110178;27;46511;-83
2023/09/17 06:41:01;;;;;;;10.50;6.93;;;19.00;48.40;;;;;;5110419;27;46757;-83
2023/09/17 06:43:26;;;;;;;9.37;5.87;;;19.40;48.00;;;;;;5109467;27;45923;-85
2023/09/17 06:45:52;;;;;;;7.83;5.63;;;19.60;47.20;;;;;;5110012;27;46654;-85
2023/09/17 06:48:17;;;;;;;8.00;5.40;;;19.90;47.60;;;;;;5106827;27;46624;-82
2023/09/17 06:50:43;;;;;;;7.27;5.40;;;20.20;46.40;;;;;;5109483;27;46517;-83
2023/09/17 06:53:08;;;;;;;7.30;5.07;;;20.40;45.80;;;;;;5109181;27;46785;-81
2023/09/17 06:55:34;;;;;;;9.13;5.43;;;20.40;45.50;;;;;;5107363;27;46623;-82
2023/09/17 06:58:00;;;;;;;6.43;4.63;;;20.60;45.60;;;;;;5106647;27;46837;-82
2023/09/17 07:00:25;;;;;;;6.23;4.50;;;20.60;45.30;;;;;;5106694;27;46420;-82
2023/09/17 07:02:51;;;;;;;7.50;4.87;;;20.80;44.70;;;;;;5092130;27;46466;-81
2023/09/17 07:05:16;;;;;;;6.67;3.97;;;21.20;44.00;;;;;;5095247;27;48031;-81
2023/09/17 07:07:42;;;;;;;8.30;4.40;;;21.60;43.00;;;;;;5096402;27;46422;-81
2023/09/17 07:10:08;;;;;;;5.70;4.10;;;21.90;41.80;;;;;;5109153;27;45883;-84
2023/09/17 07:12:38;;;;;;;7.57;3.87;;;22.20;40.90;;;;;;5091601;27;46456;-85
2023/09/17 07:15:10;;;;;;;6.90;4.03;;;22.40;40.00;;;;;;5109665;27;46618;-82
2023/09/17 07:17:36;;;;;;;10.83;4.50;;;22.60;39.20;;;;;;5125952;27;46595;-83
2023/09/17 07:20:04;;;;;;;5.60;3.87;;;22.70;38.40;;;;;;5117626;27;46372;-83
2023/09/17 07:22:29;;;;;;;5.53;3.37;;;22.80;37.80;;;;;;5090396;27;46411;-82
2023/09/17 07:24:58;;;;;;;6.87;4.00;;;22.90;36.70;;;;;;5090247;27;47335;-81
2023/09/17 07:27:33;;;;;;;7.00;3.63;;;22.90;36.80;;;;;;5106261;27;46907;-79
2023/09/17 07:29:59;;;;;;;5.20;3.10;;;23.00;36.80;;;;;;5105346;27;46615;-80
2023/09/17 07:32:28;;;;;;;6.53;3.60;;;23.00;37.20;;;;;;5092215;27;46686;-81
2023/09/17 07:34:55;;;;;;;5.93;3.73;;;23.00;35.80;;;;;;5104344;27;46549;-78
2023/09/17 07:37:21;;;;;;;6.73;3.37;;;23.10;36.80;;;;;;5106966;27;46197;-80
2023/09/17 07:39:49;;;;;;;5.30;3.30;;;23.20;35.20;;;;;;5104488;27;46511;-82
2023/09/17 07:42:15;;;;;;;6.37;3.23;;;23.20;34.80;;;;;;5100841;27;46949;-77
2023/09/17 07:44:40;;;;;;;5.93;3.47;;;23.20;34.50;;;;;;5101727;27;46684;-80
2023/09/17 07:47:08;;;;;;;6.03;3.57;;;23.20;34.40;;;;;;5086798;27;47638;-79
2023/09/17 07:49:35;;;;;;;5.17;3.50;;;23.30;34.20;;;;;;5089809;27;46504;-81
2023/09/17 07:52:00;;;;;;;8.13;3.30;;;23.20;34.00;;;;;;5108353;27;46527;-82
2023/09/17 07:54:26;;;;;;;5.10;3.40;;;23.30;34.10;;;;;;5105128;27;46497;-81
2023/09/17 07:56:52;;;;;;;7.13;3.47;;;23.30;33.90;;;;;;5105997;27;46493;-83
2023/09/17 07:59:17;;;;;;;6.70;3.27;;;23.20;33.90;;;;;;5111167;27;45855;-82
2023/09/17 08:01:44;;;;;;;6.10;3.80;;;23.30;33.70;;;;;;5108003;27;46816;-81
2023/09/17 08:04:11;;;;;;;5.60;3.43;;;23.40;33.30;;;;;;5109447;27;47063;-80
2023/09/17 08:06:36;;;;;;;5.77;3.60;;;23.50;32.70;;;;;;5106167;27;46530;-81
2023/09/17 08:09:02;;;;;;;6.00;3.50;;;23.70;31.80;;;;;;5090982;27;46681;-82
2023/09/17 08:11:29;;;;;;;7.30;3.80;;;23.90;31.30;;;;;;5105774;27;46462;-78
2023/09/17 08:13:55;;;;;;;8.70;3.93;;;24.10;30.60;;;;;;5089627;27;48318;-81
2023/09/17 08:16:21;;;;;;;7.03;3.50;;;24.10;29.90;;;;;;5104499;27;46716;-82
2023/09/17 08:18:46;;;;;;;5.10;3.93;;;24.10;29.50;;;;;;5087774;27;46579;-80
2023/09/17 08:21:12;;;;;;;5.50;3.70;;;24.10;29.50;;;;;;5105383;27;46467;-78
2023/09/17 08:23:38;;;;;;;6.17;4.00;;;24.20;29.50;;;;;;5106955;27;46368;-82
2023/09/17 08:26:05;;;;;;;7.00;3.70;;;24.20;29.20;;;;;;5105654;27;46438;-82
2023/09/17 08:28:30;;;;;;;7.90;3.83;;;24.20;29.00;;;;;;5105752;27;46556;-83
2023/09/17 08:30:56;;;;;;;7.03;4.20;;;24.20;29.00;;;;;;5106400;27;46496;-83
2023/09/17 08:33:21;;;;;;;6.07;3.70;;;24.20;28.90;;;;;;5105779;27;46442;-82
2023/09/17 08:35:47;;;;;;;6.80;3.67;;;24.30;28.50;;;;;;5103571;27;46509;-82
2023/09/17 08:38:12;;;;;;;5.80;4.27;;;24.40;28.20;;;;;;5104882;27;46687;-84
2023/09/17 08:40:39;;;;;;;9.80;4.30;;;24.60;27.70;;;;;;5089541;27;46442;-82
2023/09/17 08:43:05;;;;;;;5.60;3.80;;;24.70;27.20;;;;;;5107702;27;47525;-80
2023/09/17 08:45:31;;;;;;;7.17;4.30;;;24.90;26.60;;;;;;5102546;27;46633;-82
2023/09/17 08:47:58;;;;;;;6.77;3.90;;;25.00;26.00;;;;;;5106822;27;46583;-81
2023/09/17 08:50:25;;;;;;;9.20;4.10;;;25.10;26.00;;;;;;5104896;27;46560;-83
2023/09/17 08:52:55;;;;;;;15.30;4.23;;;25.20;26.10;;;;;;5109942;27;47083;-80
2023/09/17 08:55:22;;;;;;;6.50;4.50;;;25.40;25.30;;;;;;5108099;27;46266;-80
2023/09/17 08:57:54;;;;;;;6.67;3.70;;;25.50;24.90;;;;;;5107733;27;46506;-77
2023/09/17 09:00:21;;;;;;;8.00;4.43;;;25.60;24.50;;;;;;5110508;27;47338;-78
2023/09/17 09:02:55;;;;;;;11.60;4.10;;;25.80;24.20;;;;;;5090070;27;48076;-79
2023/09/17 09:05:25;;;;;;;6.77;3.70;;;26.00;23.50;;;;;;5108348;27;46950;-78
2023/09/17 09:07:51;;;;;;;6.47;4.20;;;26.10;23.50;;;;;;5109979;27;46636;-81
2023/09/17 09:10:18;;;;;;;17.07;4.33;;;26.20;23.10;;;;;;5106587;27;46570;-79
2023/09/17 09:12:45;;;;;;;5.80;3.67;;;26.40;23.00;;;;;;5101959;27;47255;-80
2023/09/17 09:15:11;;;;;;;5.47;3.60;;;26.60;22.30;;;;;;5108041;27;46642;-78
2023/09/17 09:17:41;;;;;;;7.47;4.20;;;26.90;21.50;;;;;;5104455;27;46769;-82
2023/09/17 09:20:17;;;;;;;5.60;3.90;;;26.80;21.20;;;;;;5093402;27;46810;-82
2023/09/17 09:22:45;;;;;;;5.80;3.93;;;26.70;21.20;;;;;;5110062;27;47621;-83
2023/09/17 09:25:13;;;;;;;10.50;3.80;;;26.70;21.50;;;;;;5111405;27;46421;-83
2023/09/17 09:27:39;;;;;;;7.50;3.73;;;26.70;21.20;;;;;;5090735;27;46933;-81
2023/09/17 09:30:09;;;;;;;12.20;4.03;;;26.60;21.20;;;;;;5112204;27;46486;-80
2023/09/17 09:32:35;;;;;;;5.40;3.63;;;26.40;21.30;;;;;;5111779;27;46448;-81
2023/09/17 09:35:02;;;;;;;7.53;4.17;;;26.50;21.20;;;;;;5108544;27;46723;-81
2023/09/17 09:37:28;;;;;;;6.80;3.83;;;26.60;20.90;;;;;;5108342;27;46458;-79
2023/09/17 09:39:54;;;;;;;7.00;3.70;;;26.60;20.60;;;;;;5113701;27;46815;-79
2023/09/17 09:42:23;;;;;;;4.77;3.37;;;26.40;20.60;;;;;;5095056;27;47108;-74
2023/09/17 09:44:51;;;;;;;7.67;4.10;;;26.30;20.50;;;;;;5083991;27;47196;-79
2023/09/17 09:47:20;;;;;;;6.90;4.00;;;26.20;20.70;;;;;;5094272;27;46706;-79
2023/09/17 09:49:46;;;;;;;7.13;4.00;;;26.10;21.10;;;;;;5106675;27;46859;-78
2023/09/17 09:52:15;;;;;;;5.97;4.00;;;26.00;21.00;;;;;;5110862;27;46312;-79
2023/09/17 09:54:43;;;;;;;5.10;3.87;;;25.90;20.80;;;;;;5101227;27;46582;-78
2023/09/17 09:57:11;;;;;;;5.70;4.27;;;26.10;20.70;;;;;;5109589;27;46987;-80
2023/09/17 09:59:37;;;;;;;5.80;3.97;;;26.20;20.30;;;;;;5111135;27;46502;-82
2023/09/17 10:02:08;;;;;;;5.33;3.63;;;26.40;20.10;;;;;;5109396;27;46467;-78
2023/09/17 10:04:37;;;;;;;7.47;4.10;;;26.60;19.70;;;;;;5105833;27;46739;-79
2023/09/17 10:07:04;;;;;;;8.53;4.10;;;26.80;19.10;;;;;;5108561;27;46452;-78
2023/09/17 10:09:30;;;;;;;5.77;3.90;;;27.00;18.80;;;;;;5108007;27;46469;-80
2023/09/17 10:11:59;;;;;;;7.03;3.93;;;27.30;18.20;;;;;;5106958;27;47445;-80
2023/09/17 10:14:26;;;;;;;6.10;4.27;;;27.80;17.40;;;;;;5089873;27;46197;-78
2023/09/17 10:16:53;;;;;;;5.23;3.40;;;28.40;16.70;;;;;;5102444;27;47757;-81
2023/09/17 10:19:21;;;;;;;6.43;3.63;;;28.70;15.30;;;;;;5102252;27;46438;-78
2023/09/17 10:21:48;;;;;;;8.50;4.47;;;29.00;14.60;;;;;;5106514;27;46734;-79
2023/09/17 10:24:15;;;;;;;5.70;3.70;;;28.70;14.40;;;;;;5109349;27;46633;-79
2023/09/17 10:26:42;;;;;;;7.77;3.47;;;28.20;14.50;;;;;;5088944;27;46463;-80
2023/09/17 10:29:13;;;;;;;5.23;3.77;;;28.20;14.60;;;;;;5107047;27;46272;-79
2023/09/17 10:31:40;;;;;;;6.10;3.57;;;28.20;14.70;;;;;;5109738;27;47010;-78
2023/09/17 10:34:08;;;;;;;7.17;3.67;;;28.20;14.80;;;;;;5106117;27;47012;-80
2023/09/17 10:36:37;;;;;;;5.97;3.50;;;28.00;14.80;;;;;;5106204;27;45834;-82
2023/09/17 10:39:06;;;;;;;5.70;3.30;;;27.90;14.60;;;;;;5107324;27;46449;-83
2023/09/17 10:41:35;;;;;;;6.73;3.83;;;27.50;14.90;;;;;;5107697;27;46999;-79
2023/09/17 10:44:03;;;;;;;7.40;3.50;;;27.30;14.90;;;;;;5094195;27;46442;-83
2023/09/17 10:46:31;;;;;;;5.13;3.50;;;27.00;15.10;;;;;;5107792;27;46440;-80
2023/09/17 10:48:58;;;;;;;7.00;3.37;;;26.90;15.20;;;;;;5104861;27;46553;-75
2023/09/17 10:51:27;;;;;;;8.67;3.60;;;27.10;15.10;;;;;;5103102;27;47162;-78
2023/09/17 10:53:54;;;;;;;5.10;2.83;;;27.30;15.10;;;;;;5105308;27;45983;-77
2023/09/17 10:56:21;;;;;;;7.20;3.87;;;27.40;15.30;;;;;;5105574;27;46817;-77
2023/09/17 10:58:50;;;;;;;5.73;3.27;;;27.60;15.40;;;;;;5105342;27;46938;-79
2023/09/17 11:01:20;;;;;;;7.23;3.60;;;27.70;14.70;;;;;;5107010;27;48134;-78
2023/09/17 11:03:55;;;;;;;5.50;3.23;;;27.60;14.50;;;;;;5096395;27;46690;-77
2023/09/17 11:06:25;;;;;;;6.50;3.20;;;27.50;14.60;;;;;;5103219;27;46489;-78
2023/09/17 11:08:54;;;;;;;5.80;2.90;;;27.50;14.40;;;;;;5105846;27;46467;-79
2023/09/17 11:11:24;;;;;;;12.43;3.50;;;27.40;14.50;;;;;;5105613;27;47484;-76
2023/09/17 11:13:51;;;;;;;4.80;2.97;;;27.50;14.50;;;;;;5107822;27;46809;-77
2023/09/17 11:16:29;;;;;;;5.20;3.17;;;27.60;14.10;;;;;;5089442;27;46487;-81
2023/09/17 11:19:19;;;;;;;5.67;3.13;;;27.60;13.30;;;;;;5106822;27;46678;-77
2023/09/17 11:21:50;;;;;;;7.90;3.37;;;27.50;13.10;;;;;;5088564;27;48057;-79
2023/09/17 11:24:18;;;;;;;4.60;3.20;;;27.50;13.30;;;;;;5090243;27;46981;-78
2023/09/17 11:26:45;;;;;;;5.80;3.57;;;27.50;13.10;;;;;;5104370;27;46494;-78
2023/09/17 11:29:11;;;;;;;6.23;3.30;;;27.60;12.80;;;;;;5105670;27;46509;-78
2023/09/17 11:31:51;;;;;;;8.10;3.53;;;27.50;12.10;;;;;;5104695;27;47479;-77
2023/09/17 11:34:17;;;;;;;5.13;3.17;;;27.50;11.30;;;;;;5090212;27;46585;-81
2023/09/17 11:36:44;;;;;;;3.97;2.60;;;27.40;11.50;;;;;;5105168;27;46797;-78
2023/09/17 11:39:15;;;;;;;5.90;2.87;;;27.50;11.30;;;;;;5107300;27;46547;-77
2023/09/17 11:41:52;;;;;;;6.67;3.20;;;27.50;10.90;;;;;;5105427;27;46801;-79
2023/09/17 11:44:21;;;;;;;6.00;2.97;;;27.60;10.50;;;;;;5105727;27;46514;-77
2023/09/17 11:46:46;;;;;;;3.90;2.50;;;27.70;10.10;;;;;;5106202;27;46541;-76
2023/09/17 11:49:13;;;;;;;4.00;2.63;;;27.70;10.10;;;;;;5107803;27;46591;-78
2023/09/17 11:51:47;;;;;;;5.27;2.93;;;27.60;10.10;;;;;;5084957;27;49121;-76
2023/09/17 11:54:15;;;;;;;4.77;3.03;;;27.70;9.60;;;;;;5105834;27;46348;-76
2023/09/17 11:56:46;;;;;;;4.73;2.50;;;27.90;9.60;;;;;;5104340;27;46654;-76
2023/09/17 11:59:15;;;;;;;6.43;2.67;;;28.10;9.20;;;;;;5090394;27;46689;-79
2023/09/17 12:01:52;;;;;;;4.93;2.87;;;28.30;9.10;;;;;;5103337;27;46400;-77
2023/09/17 12:04:19;;;;;;;4.33;2.53;;;28.30;8.30;;;;;;5103960;27;46504;-77
2023/09/17 12:06:49;;;;;;;4.80;2.83;;;28.50;8.50;;;;;;5089814;27;46354;-77
2023/09/17 12:12:20;;;;;;;5.57;3.00;;;28.50;8.50;;;;;;5102884;27;47326;-80
2023/09/17 12:14:49;;;;;;;4.13;2.63;;;28.30;9.00;;;;;;5110320;27;46539;-83
2023/09/17 12:17:16;;;;;;;5.00;3.33;;;28.30;9.00;;;;;;5107843;27;46846;-79
2023/09/17 12:19:42;;;;;;;4.10;2.60;;;28.20;9.20;;;;;;5093358;27;46808;-78
2023/09/17 12:22:09;;;;;;;5.37;3.10;;;28.10;9.20;;;;;;5103296;27;46598;-78
2023/09/17 12:25:13;;;;;;;4.20;2.93;;;28.00;9.20;;;;;;5103109;27;47693;-78
2023/09/17 12:27:46;;;;;;;5.47;3.50;;;28.00;9.20;;;;;;5102915;27;46672;-84
2023/09/17 12:30:13;;;;;;;8.70;3.00;;;27.80;9.10;;;;;;5100323;27;46448;-78
2023/09/17 12:32:39;;;;;;;5.80;3.20;;;27.80;9.50;;;;;;5107878;27;47090;-80
2023/09/17 12:35:06;;;;;;;4.67;2.83;;;27.90;9.20;;;;;;5103587;27;46505;-81
2023/09/17 12:37:31;;;;;;;3.80;2.60;;;27.80;8.80;;;;;;5087681;27;46393;-79
2023/09/17 12:39:57;;;;;;;3.80;2.37;;;28.00;8.70;;;;;;5104729;27;46846;-83
2023/09/17 12:42:23;;;;;;;5.80;2.77;;;28.20;8.30;;;;;;5108105;27;46481;-82
2023/09/17 12:44:50;;;;;;;5.63;2.73;;;28.40;8.20;;;;;;5084724;27;46604;-82